createdAt,value
2019-05-26T00:00:02.685Z,936.71
2019-05-26T00:01:02.648Z,936.68
2019-05-26T00:02:02.962Z,936.66
2019-05-26T00:03:02.618Z,936.71
2019-05-26T00:04:02.595Z,936.70
2019-05-26T00:05:02.594Z,936.75
2019-05-26T00:06:02.608Z,936.69
2019-05-26T00:07:03.084Z,936.71
2019-05-26T00:08:02.573Z,936.71
2019-05-26T00:09:02.538Z,936.71
2019-05-26T00:10:02.699Z,936.71
2019-05-26T00:11:02.519Z,936.77
2019-05-26T00:12:02.707Z,936.76
2019-05-26T00:13:02.497Z,936.75
2019-05-26T00:14:02.495Z,936.78
2019-05-26T00:15:02.531Z,936.76
2019-05-26T00:16:02.463Z,936.73
2019-05-26T00:17:02.914Z,936.74
2019-05-26T00:18:02.447Z,936.69
2019-05-26T00:19:02.446Z,936.68
2019-05-26T00:20:02.453Z,936.69
2019-05-26T00:21:02.431Z,936.70
2019-05-26T00:22:02.961Z,936.69
2019-05-26T00:23:02.391Z,936.71
2019-05-26T00:24:02.368Z,936.73
2019-05-26T00:25:02.374Z,936.76
2019-05-26T00:26:02.354Z,936.78
2019-05-26T00:27:02.674Z,936.75
2019-05-26T00:28:02.341Z,936.77
2019-05-26T00:29:02.292Z,936.73
2019-05-26T00:30:02.309Z,936.79
2019-05-26T00:31:02.298Z,936.80
2019-05-26T00:32:02.280Z,936.78
2019-05-26T00:33:02.576Z,936.78
2019-05-26T00:34:02.277Z,936.77
2019-05-26T00:35:02.234Z,936.74
2019-05-26T00:36:02.227Z,936.76
2019-05-26T00:37:02.242Z,936.74
2019-05-26T00:38:02.257Z,936.76
2019-05-26T00:39:02.552Z,936.79
2019-05-26T00:40:02.195Z,936.75
2019-05-26T00:41:02.181Z,936.76
2019-05-26T00:42:02.164Z,936.75
2019-05-26T00:43:02.164Z,936.75
2019-05-26T00:44:02.160Z,936.81
2019-05-26T00:45:02.558Z,936.75
2019-05-26T00:46:02.096Z,936.72
2019-05-26T00:47:02.116Z,936.69
2019-05-26T00:48:02.084Z,936.69
2019-05-26T00:49:02.075Z,936.69
2019-05-26T00:50:02.111Z,936.70
2019-05-26T00:51:02.581Z,936.68
2019-05-26T00:52:02.027Z,936.74
2019-05-26T00:53:02.051Z,936.73
2019-05-26T00:54:02.034Z,936.74
2019-05-26T00:55:02.022Z,936.74
2019-05-26T00:56:01.998Z,936.68
2019-05-26T00:57:02.282Z,936.72
2019-05-26T00:58:01.982Z,936.69
2019-05-26T00:59:01.950Z,936.68
2019-05-26T01:00:01.948Z,936.67
2019-05-26T01:01:01.950Z,936.65
2019-05-26T01:02:01.925Z,936.64
2019-05-26T01:03:02.752Z,936.65
2019-05-26T01:04:01.935Z,936.62
2019-05-26T01:05:01.918Z,936.57
2019-05-26T01:06:01.864Z,936.52
2019-05-26T01:07:01.850Z,936.51
2019-05-26T01:08:06.454Z,936.52
2019-05-26T01:09:02.382Z,936.51
2019-05-26T01:10:01.811Z,936.54
2019-05-26T01:11:01.861Z,936.51
2019-05-26T01:12:01.787Z,936.52
2019-05-26T01:13:01.788Z,936.51
2019-05-26T01:14:01.779Z,936.56
2019-05-26T01:15:02.147Z,936.57
2019-05-26T01:16:01.745Z,936.56
2019-05-26T01:17:01.752Z,936.53
2019-05-26T01:18:01.734Z,936.49
2019-05-26T01:19:01.713Z,936.54
2019-05-26T01:20:02.393Z,936.59
2019-05-26T01:21:01.706Z,936.58
2019-05-26T01:22:01.688Z,936.58
2019-05-26T01:23:01.692Z,936.58
2019-05-26T01:24:01.654Z,936.64
2019-05-26T01:25:01.636Z,936.64
2019-05-26T01:26:02.211Z,936.65
2019-05-26T01:27:01.606Z,936.65
2019-05-26T01:28:01.597Z,936.62
2019-05-26T01:29:01.594Z,936.62
2019-05-26T01:30:01.580Z,936.64
2019-05-26T01:31:01.567Z,936.62
2019-05-26T01:32:02.310Z,936.60
2019-05-26T01:33:01.527Z,936.63
2019-05-26T01:34:01.523Z,936.62
2019-05-26T01:35:01.521Z,936.67
2019-05-26T01:36:01.541Z,936.65
2019-05-26T01:37:01.491Z,936.68
2019-05-26T01:38:02.079Z,936.69
2019-05-26T01:39:01.469Z,936.70
2019-05-26T01:40:01.446Z,936.72
2019-05-26T01:41:01.441Z,936.71
2019-05-26T01:42:01.446Z,936.78
2019-05-26T01:43:01.965Z,936.77
2019-05-26T01:44:01.418Z,936.82
2019-05-26T01:45:01.426Z,936.79
2019-05-26T01:46:01.365Z,936.79
2019-05-26T01:47:01.361Z,936.80
2019-05-26T01:48:01.412Z,936.81
2019-05-26T01:49:01.878Z,936.79
2019-05-26T01:50:01.337Z,936.72
2019-05-26T01:51:01.315Z,936.75
2019-05-26T01:52:01.303Z,936.74
2019-05-26T01:53:01.275Z,936.74
2019-05-26T01:54:01.458Z,936.78
2019-05-26T01:55:01.309Z,936.78
2019-05-26T01:56:01.268Z,936.79
2019-05-26T01:57:01.252Z,936.74
2019-05-26T01:58:01.233Z,936.77
2019-05-26T01:59:01.230Z,936.72
2019-05-26T02:00:01.700Z,936.71
2019-05-26T02:01:01.204Z,936.71
2019-05-26T02:02:01.183Z,936.65
2019-05-26T02:03:01.179Z,936.65
2019-05-26T02:04:01.165Z,936.67
2019-05-26T02:05:01.155Z,936.67
2019-05-26T02:06:01.568Z,936.67
2019-05-26T02:07:01.134Z,936.69
2019-05-26T02:08:01.098Z,936.68
2019-05-26T02:09:01.108Z,936.70
2019-05-26T02:10:01.095Z,936.71
2019-05-26T02:11:01.081Z,936.67
2019-05-26T02:12:01.375Z,936.68
2019-05-26T02:13:01.057Z,936.67
2019-05-26T02:14:01.093Z,936.67
2019-05-26T02:15:01.048Z,936.66
2019-05-26T02:16:00.997Z,936.70
2019-05-26T02:17:01.021Z,936.75
2019-05-26T02:18:01.347Z,936.76
2019-05-26T02:19:00.960Z,936.80
2019-05-26T02:20:00.977Z,936.73
2019-05-26T02:21:00.976Z,936.75
2019-05-26T02:22:00.936Z,936.71
2019-05-26T02:23:00.993Z,936.72
2019-05-26T02:24:01.515Z,936.69
2019-05-26T02:25:00.913Z,936.72
2019-05-26T02:26:00.882Z,936.66
2019-05-26T02:27:00.889Z,936.71
2019-05-26T02:28:00.871Z,936.72
2019-05-26T02:29:00.887Z,936.73
2019-05-26T02:30:01.207Z,936.74
2019-05-26T02:31:00.846Z,936.78
2019-05-26T02:32:00.848Z,936.79
2019-05-26T02:33:00.817Z,936.77
2019-05-26T02:34:00.784Z,936.80
2019-05-26T02:35:01.101Z,936.76
2019-05-26T02:36:00.783Z,936.79
2019-05-26T02:37:00.807Z,936.81
2019-05-26T02:38:00.760Z,936.78
2019-05-26T02:39:03.121Z,936.81
2019-05-26T02:40:01.468Z,936.80
2019-05-26T02:41:00.716Z,936.79
2019-05-26T02:42:00.674Z,936.80
2019-05-26T02:43:00.700Z,936.77
2019-05-26T02:44:00.679Z,936.79
2019-05-26T02:45:00.666Z,936.70
2019-05-26T02:46:00.965Z,936.73
2019-05-26T02:47:00.637Z,936.72
2019-05-26T02:48:00.650Z,936.72
2019-05-26T02:49:00.610Z,936.74
2019-05-26T02:50:00.671Z,936.71
2019-05-26T02:51:01.116Z,936.72
2019-05-26T02:52:00.609Z,936.68
2019-05-26T02:53:00.590Z,936.71
2019-05-26T02:54:00.547Z,936.69
2019-05-26T02:55:00.556Z,936.71
2019-05-26T02:56:00.994Z,936.67
2019-05-26T02:57:00.519Z,936.69
2019-05-26T02:58:00.510Z,936.64
2019-05-26T02:59:00.500Z,936.65
2019-05-26T03:00:00.494Z,936.65
2019-05-26T03:01:00.472Z,936.62
2019-05-26T03:02:03.626Z,936.62
2019-05-26T03:03:00.442Z,936.62
2019-05-26T03:04:00.489Z,936.60
2019-05-26T03:05:00.492Z,936.58
2019-05-26T03:06:00.395Z,936.59
2019-05-26T03:07:00.737Z,936.57
2019-05-26T03:08:00.374Z,936.52
2019-05-26T03:09:18.551Z,936.51
2019-05-26T03:10:00.382Z,936.46
2019-05-26T03:11:00.356Z,936.47
2019-05-26T03:12:00.332Z,936.46
2019-05-26T03:13:00.777Z,936.41
2019-05-26T03:14:00.332Z,936.42
2019-05-26T03:15:00.311Z,936.40
2019-05-26T03:16:00.297Z,936.36
2019-05-26T03:17:00.298Z,936.41
2019-05-26T03:18:00.337Z,936.46
2019-05-26T03:19:00.599Z,936.46
2019-05-26T03:20:00.267Z,936.46
2019-05-26T03:21:00.248Z,936.47
2019-05-26T03:22:00.209Z,936.44
2019-05-26T03:23:00.203Z,936.42
2019-05-26T03:24:00.199Z,936.41
2019-05-26T03:25:00.484Z,936.40
2019-05-26T03:26:00.163Z,936.43
2019-05-26T03:27:00.132Z,936.39
2019-05-26T03:28:00.134Z,936.41
2019-05-26T03:29:00.121Z,936.36
2019-05-26T03:30:00.135Z,936.39
2019-05-26T03:31:00.265Z,936.35
2019-05-26T03:32:00.563Z,936.39
2019-05-26T03:33:00.063Z,936.38
2019-05-26T03:34:00.078Z,936.40
2019-05-26T03:35:00.062Z,936.39
2019-05-26T03:36:00.044Z,936.39
2019-05-26T03:37:00.029Z,936.38
2019-05-26T03:38:00.353Z,936.38
2019-05-26T03:39:00.048Z,936.41
2019-05-26T03:40:00.020Z,936.38
2019-05-26T03:40:59.976Z,936.37
2019-05-26T03:41:59.968Z,936.38
2019-05-26T03:42:59.942Z,936.38
2019-05-26T03:44:00.393Z,936.40
2019-05-26T03:44:59.949Z,936.39
2019-05-26T03:45:59.916Z,936.39
2019-05-26T03:46:59.916Z,936.39
2019-05-26T03:47:59.917Z,936.38
2019-05-26T03:48:59.889Z,936.38
2019-05-26T03:50:00.457Z,936.34
2019-05-26T03:50:59.882Z,936.37
2019-05-26T03:51:59.901Z,936.39
2019-05-26T03:52:59.845Z,936.39
2019-05-26T03:53:59.834Z,936.37
2019-05-26T03:54:59.831Z,936.39
2019-05-26T03:56:00.167Z,936.45
2019-05-26T03:56:59.833Z,936.42
2019-05-26T03:57:59.786Z,936.41
2019-05-26T03:58:59.785Z,936.39
2019-05-26T03:59:59.757Z,936.38
2019-05-26T04:01:00.214Z,936.36
2019-05-26T04:01:59.759Z,936.39
2019-05-26T04:02:59.707Z,936.33
2019-05-26T04:03:59.713Z,936.32
2019-05-26T04:04:59.705Z,936.31
2019-05-26T04:05:59.691Z,936.32
2019-05-26T04:07:00.372Z,936.35
2019-05-26T04:08:04.040Z,936.33
2019-05-26T04:08:59.636Z,936.34
2019-05-26T04:10:05.146Z,936.35
2019-05-26T04:10:59.601Z,936.38
2019-05-26T04:11:59.629Z,936.37
2019-05-26T04:13:00.057Z,936.34
2019-05-26T04:13:59.624Z,936.36
2019-05-26T04:14:59.583Z,936.34
2019-05-26T04:15:59.560Z,936.34
2019-05-26T04:16:59.574Z,936.35
2019-05-26T04:17:59.578Z,936.32
2019-05-26T04:18:59.875Z,936.32
2019-05-26T04:19:59.532Z,936.33
2019-05-26T04:20:59.482Z,936.32
2019-05-26T04:21:59.485Z,936.36
2019-05-26T04:22:59.480Z,936.33
2019-05-26T04:23:59.500Z,936.28
2019-05-26T04:24:59.865Z,936.27
2019-05-26T04:25:59.434Z,936.27
2019-05-26T04:26:59.421Z,936.23
2019-05-26T04:27:59.427Z,936.22
2019-05-26T04:28:59.423Z,936.23
2019-05-26T04:29:59.382Z,936.25
2019-05-26T04:30:59.708Z,936.25
2019-05-26T04:32:02.086Z,936.24
2019-05-26T04:32:59.393Z,936.26
2019-05-26T04:33:59.337Z,936.22
2019-05-26T04:34:59.321Z,936.21
2019-05-26T04:35:59.869Z,936.19
2019-05-26T04:36:59.325Z,936.20
2019-05-26T04:37:59.275Z,936.19
2019-05-26T04:38:59.272Z,936.17
2019-05-26T04:39:59.270Z,936.15
2019-05-26T04:40:59.314Z,936.14
2019-05-26T04:41:59.672Z,936.17
2019-05-26T04:42:59.223Z,936.17
2019-05-26T04:43:59.234Z,936.13
2019-05-26T04:44:59.195Z,936.13
2019-05-26T04:45:59.237Z,936.13
2019-05-26T04:46:59.161Z,936.11
2019-05-26T04:47:59.521Z,936.11
2019-05-26T04:48:59.163Z,936.08
2019-05-26T04:49:59.179Z,936.10
2019-05-26T04:50:59.140Z,936.11
2019-05-26T04:51:59.147Z,936.08
2019-05-26T04:53:06.336Z,936.09
2019-05-26T04:53:59.540Z,936.13
2019-05-26T04:54:59.093Z,936.10
2019-05-26T04:55:59.055Z,936.11
2019-05-26T04:56:59.080Z,936.12
2019-05-26T04:57:59.035Z,936.13
2019-05-26T04:58:59.035Z,936.12
2019-05-26T04:59:59.523Z,936.13
2019-05-26T05:00:59.017Z,936.11
2019-05-26T05:01:58.992Z,936.10
2019-05-26T05:02:59.017Z,936.04
2019-05-26T05:03:58.958Z,936.05
2019-05-26T05:04:58.948Z,936.04
2019-05-26T05:05:59.281Z,936.02
2019-05-26T05:06:58.978Z,936.00
2019-05-26T05:07:58.908Z,935.94
2019-05-26T05:08:58.895Z,935.94
2019-05-26T05:09:58.904Z,935.90
2019-05-26T05:10:58.891Z,935.87
2019-05-26T05:11:59.200Z,935.89
2019-05-26T05:12:59.103Z,935.89
2019-05-26T05:13:58.828Z,935.89
2019-05-26T05:14:58.817Z,935.86
2019-05-26T05:15:58.879Z,935.87
2019-05-26T05:16:58.797Z,935.84
2019-05-26T05:17:59.443Z,935.84
2019-05-26T05:18:58.770Z,935.82
2019-05-26T05:19:58.751Z,935.72
2019-05-26T05:20:58.764Z,935.72
2019-05-26T05:21:58.736Z,935.72
2019-05-26T05:22:58.724Z,935.74
2019-05-26T05:23:59.211Z,935.75
2019-05-26T05:24:58.696Z,935.71
2019-05-26T05:25:58.682Z,935.74
2019-05-26T05:26:58.718Z,935.73
2019-05-26T05:27:58.663Z,935.78
2019-05-26T05:28:59.029Z,935.76
2019-05-26T05:29:58.644Z,935.75
2019-05-26T05:30:58.614Z,935.74
2019-05-26T05:31:58.635Z,935.69
2019-05-26T05:32:58.635Z,935.71
2019-05-26T05:33:58.604Z,935.75
2019-05-26T05:34:59.076Z,935.78
2019-05-26T05:35:58.559Z,935.82
2019-05-26T05:36:58.589Z,935.80
2019-05-26T05:37:58.545Z,935.79
2019-05-26T05:38:58.536Z,935.79
2019-05-26T05:39:59.092Z,935.74
2019-05-26T05:41:00.269Z,935.76
2019-05-26T05:41:58.505Z,935.75
2019-05-26T05:42:58.465Z,935.76
2019-05-26T05:43:58.486Z,935.79
2019-05-26T05:44:58.459Z,935.74
2019-05-26T05:45:58.909Z,935.72
2019-05-26T05:46:58.407Z,935.71
2019-05-26T05:47:58.421Z,935.70
2019-05-26T05:48:58.408Z,935.68
2019-05-26T05:49:58.397Z,935.68
2019-05-26T05:50:58.717Z,935.64
2019-05-26T05:51:58.405Z,935.62
2019-05-26T05:52:58.351Z,935.61
2019-05-26T05:53:58.340Z,935.62
2019-05-26T05:54:58.310Z,935.66
2019-05-26T05:55:58.315Z,935.65
2019-05-26T05:56:58.738Z,935.63
2019-05-26T05:57:58.297Z,935.62
2019-05-26T05:58:58.270Z,935.59
2019-05-26T05:59:58.267Z,935.59
2019-05-26T06:00:58.252Z,935.55
2019-05-26T06:01:58.252Z,935.51
2019-05-26T06:02:58.838Z,935.49
2019-05-26T06:03:58.226Z,935.50
2019-05-26T06:04:58.205Z,935.50
2019-05-26T06:05:58.199Z,935.49
2019-05-26T06:06:58.168Z,935.49
2019-05-26T06:07:58.170Z,935.47
2019-05-26T06:08:58.559Z,935.48
2019-05-26T06:09:58.173Z,935.50
2019-05-26T06:11:13.363Z,935.47
2019-05-26T06:11:58.124Z,935.47
2019-05-26T06:12:58.116Z,935.49
2019-05-26T06:13:58.088Z,935.49
2019-05-26T06:14:58.545Z,935.47
2019-05-26T06:15:58.061Z,935.55
2019-05-26T06:16:58.053Z,935.53
2019-05-26T06:17:58.023Z,935.54
2019-05-26T06:18:58.042Z,935.59
2019-05-26T06:19:58.043Z,935.58
2019-05-26T06:20:58.507Z,935.54
2019-05-26T06:21:58.009Z,935.52
2019-05-26T06:22:57.982Z,935.52
2019-05-26T06:23:57.951Z,935.56
2019-05-26T06:24:57.967Z,935.53
2019-05-26T06:25:57.945Z,935.55
2019-05-26T06:26:58.488Z,935.55
2019-05-26T06:27:57.917Z,935.58
2019-05-26T06:28:57.909Z,935.55
2019-05-26T06:29:59.116Z,935.53
2019-05-26T06:30:57.925Z,935.52
2019-05-26T06:31:58.277Z,935.52
2019-05-26T06:32:58.316Z,935.50
2019-05-26T06:33:57.832Z,935.50
2019-05-26T06:34:57.836Z,935.54
2019-05-26T06:35:57.856Z,935.56
2019-05-26T06:36:57.829Z,935.57
2019-05-26T06:37:58.138Z,935.57
2019-05-26T06:38:57.775Z,935.58
2019-05-26T06:39:57.786Z,935.54
2019-05-26T06:40:57.813Z,935.54
2019-05-26T06:41:57.759Z,935.55
2019-05-26T06:42:57.776Z,935.50
2019-05-26T06:43:58.288Z,935.51
2019-05-26T06:44:57.698Z,935.53
2019-05-26T06:45:57.721Z,935.49
2019-05-26T06:46:57.673Z,935.51
2019-05-26T06:47:57.696Z,935.48
2019-05-26T06:48:57.713Z,935.47
2019-05-26T06:49:57.990Z,935.53
2019-05-26T06:50:57.656Z,935.51
2019-05-26T06:51:57.624Z,935.48
2019-05-26T06:52:57.631Z,935.51
2019-05-26T06:53:57.607Z,935.48
2019-05-26T06:54:58.107Z,935.47
2019-05-26T06:55:57.588Z,935.46
2019-05-26T06:56:57.580Z,935.43
2019-05-26T06:57:57.573Z,935.45
2019-05-26T06:58:57.548Z,935.44
2019-05-26T06:59:58.036Z,935.42
2019-05-26T07:00:57.508Z,935.40
2019-05-26T07:01:57.524Z,935.45
2019-05-26T07:02:57.493Z,935.39
2019-05-26T07:03:57.483Z,935.43
2019-05-26T07:04:57.955Z,935.39
2019-05-26T07:05:57.461Z,935.37
2019-05-26T07:06:57.493Z,935.35
2019-05-26T07:07:57.453Z,935.34
2019-05-26T07:08:57.423Z,935.37
2019-05-26T07:09:57.769Z,935.35
2019-05-26T07:10:57.402Z,935.34
2019-05-26T07:12:00.150Z,935.36
2019-05-26T07:12:57.381Z,935.31
2019-05-26T07:13:57.364Z,935.26
2019-05-26T07:14:57.361Z,935.28
2019-05-26T07:15:57.994Z,935.28
2019-05-26T07:16:57.363Z,935.24
2019-05-26T07:17:57.321Z,935.27
2019-05-26T07:18:57.308Z,935.25
2019-05-26T07:19:57.301Z,935.27
2019-05-26T07:20:57.282Z,935.27
2019-05-26T07:21:57.658Z,935.22
2019-05-26T07:22:57.262Z,935.23
2019-05-26T07:23:57.249Z,935.28
2019-05-26T07:24:57.242Z,935.26
2019-05-26T07:25:57.199Z,935.26
2019-05-26T07:26:57.200Z,935.22
2019-05-26T07:27:57.751Z,935.25
2019-05-26T07:28:57.172Z,935.26
2019-05-26T07:29:57.175Z,935.28
2019-05-26T07:30:57.130Z,935.29
2019-05-26T07:31:57.155Z,935.27
2019-05-26T07:32:57.108Z,935.28
2019-05-26T07:33:57.475Z,935.29
2019-05-26T07:34:57.111Z,935.30
2019-05-26T07:35:57.095Z,935.30
2019-05-26T07:36:57.087Z,935.31
2019-05-26T07:37:57.112Z,935.30
2019-05-26T07:38:57.042Z,935.32
2019-05-26T07:39:57.669Z,935.34
2019-05-26T07:40:57.062Z,935.37
2019-05-26T07:42:09.259Z,935.36
2019-05-26T07:42:57.014Z,935.40
2019-05-26T07:43:56.986Z,935.43
2019-05-26T07:44:56.973Z,935.42
2019-05-26T07:45:57.596Z,935.46
2019-05-26T07:46:56.951Z,935.51
2019-05-26T07:47:56.951Z,935.48
2019-05-26T07:48:56.925Z,935.56
2019-05-26T07:49:56.912Z,935.60
2019-05-26T07:50:56.941Z,935.59
2019-05-26T07:51:57.242Z,935.62
2019-05-26T07:52:56.864Z,935.65
2019-05-26T07:53:56.889Z,935.68
2019-05-26T07:54:56.901Z,935.71
2019-05-26T07:55:56.844Z,935.71
2019-05-26T07:56:56.835Z,935.77
2019-05-26T07:57:57.687Z,935.75
2019-05-26T07:58:56.839Z,935.78
2019-05-26T07:59:56.797Z,935.74
2019-05-26T08:00:56.799Z,935.73
2019-05-26T08:01:56.758Z,935.75
2019-05-26T08:02:56.757Z,935.76
2019-05-26T08:03:57.196Z,935.76
2019-05-26T08:04:56.736Z,935.79
2019-05-26T08:05:56.727Z,935.83
2019-05-26T08:06:56.718Z,935.83
2019-05-26T08:08:11.534Z,935.80
2019-05-26T08:08:57.144Z,935.80
2019-05-26T08:09:56.714Z,935.83
2019-05-26T08:10:56.666Z,935.83
2019-05-26T08:11:56.685Z,935.82
2019-05-26T08:12:56.622Z,935.83
2019-05-26T08:13:57.116Z,935.84
2019-05-26T08:14:56.593Z,935.85
2019-05-26T08:15:56.601Z,935.86
2019-05-26T08:16:56.583Z,935.86
2019-05-26T08:17:56.569Z,935.87
2019-05-26T08:18:56.950Z,935.90
2019-05-26T08:19:56.550Z,935.85
2019-05-26T08:20:56.522Z,935.86
2019-05-26T08:21:56.531Z,935.87
2019-05-26T08:22:56.529Z,935.87
2019-05-26T08:23:56.846Z,935.88
2019-05-26T08:24:56.483Z,935.91
2019-05-26T08:25:56.561Z,935.88
2019-05-26T08:26:56.459Z,935.85
2019-05-26T08:27:56.439Z,935.88
2019-05-26T08:28:56.856Z,935.87
2019-05-26T08:29:56.400Z,935.88
2019-05-26T08:30:56.436Z,935.88
2019-05-26T08:31:56.384Z,935.87
2019-05-26T08:32:56.389Z,935.88
2019-05-26T08:33:56.375Z,935.91
2019-05-26T08:34:56.840Z,935.93
2019-05-26T08:35:56.332Z,935.91
2019-05-26T08:36:56.328Z,935.96
2019-05-26T08:37:56.334Z,935.95
2019-05-26T08:38:56.287Z,935.92
2019-05-26T08:39:56.283Z,935.95
2019-05-26T08:40:56.669Z,935.97
2019-05-26T08:41:56.265Z,935.98
2019-05-26T08:42:56.258Z,936.01
2019-05-26T08:43:56.254Z,935.96
2019-05-26T08:44:56.281Z,935.97
2019-05-26T08:45:56.259Z,935.99
2019-05-26T08:46:56.628Z,936.01
2019-05-26T08:47:56.203Z,936.01
2019-05-26T08:48:56.164Z,936.05
2019-05-26T08:49:56.171Z,936.06
2019-05-26T08:50:56.154Z,936.09
2019-05-26T08:51:56.130Z,936.10
2019-05-26T08:52:56.511Z,936.09
2019-05-26T08:53:56.109Z,936.12
2019-05-26T08:54:56.121Z,936.15
2019-05-26T08:55:56.087Z,936.11
2019-05-26T08:56:56.086Z,936.13
2019-05-26T08:57:56.086Z,936.17
2019-05-26T08:58:56.313Z,936.17
2019-05-26T08:59:56.052Z,936.17
2019-05-26T09:00:56.041Z,936.14
2019-05-26T09:01:56.025Z,936.19
2019-05-26T09:02:55.999Z,936.17
2019-05-26T09:03:56.320Z,936.17
2019-05-26T09:04:55.988Z,936.19
2019-05-26T09:05:55.978Z,936.18
2019-05-26T09:06:55.971Z,936.18
2019-05-26T09:07:55.950Z,936.19
2019-05-26T09:08:56.427Z,936.21
2019-05-26T09:09:55.928Z,936.20
2019-05-26T09:10:55.922Z,936.21
2019-05-26T09:11:55.905Z,936.22
2019-05-26T09:13:01.345Z,936.22
2019-05-26T09:13:55.884Z,936.22
2019-05-26T09:14:56.325Z,936.24
2019-05-26T09:15:55.879Z,936.24
2019-05-26T09:16:55.859Z,936.25
2019-05-26T09:17:55.824Z,936.27
2019-05-26T09:18:55.822Z,936.31
2019-05-26T09:19:56.144Z,936.31
2019-05-26T09:20:55.813Z,936.35
2019-05-26T09:21:55.773Z,936.31
2019-05-26T09:22:55.759Z,936.34
2019-05-26T09:23:55.762Z,936.32
2019-05-26T09:24:56.186Z,936.30
2019-05-26T09:25:55.750Z,936.34
2019-05-26T09:26:55.715Z,936.37
2019-05-26T09:27:55.721Z,936.36
2019-05-26T09:28:55.686Z,936.37
2019-05-26T09:29:56.080Z,936.38
2019-05-26T09:30:55.680Z,936.42
2019-05-26T09:31:55.722Z,936.39
2019-05-26T09:32:55.656Z,936.41
2019-05-26T09:33:55.632Z,936.38
2019-05-26T09:34:55.978Z,936.41
2019-05-26T09:35:55.620Z,936.40
2019-05-26T09:36:57.176Z,936.40
2019-05-26T09:37:55.583Z,936.42
2019-05-26T09:38:55.586Z,936.42
2019-05-26T09:39:56.054Z,936.43
2019-05-26T09:40:55.537Z,936.46
2019-05-26T09:41:55.526Z,936.45
2019-05-26T09:42:55.522Z,936.48
2019-05-26T09:43:55.520Z,936.49
2019-05-26T09:44:56.024Z,936.47
2019-05-26T09:45:55.487Z,936.47
2019-05-26T09:46:55.489Z,936.44
2019-05-26T09:47:55.461Z,936.46
2019-05-26T09:48:55.435Z,936.46
2019-05-26T09:49:55.442Z,936.44
2019-05-26T09:50:55.779Z,936.48
2019-05-26T09:51:55.422Z,936.47
2019-05-26T09:52:55.444Z,936.44
2019-05-26T09:54:01.806Z,936.43
2019-05-26T09:54:55.371Z,936.41
2019-05-26T09:55:55.374Z,936.46
2019-05-26T09:56:55.839Z,936.43
2019-05-26T09:57:55.354Z,936.46
2019-05-26T09:58:55.334Z,936.46
2019-05-26T09:59:55.331Z,936.45
2019-05-26T10:00:55.357Z,936.49
2019-05-26T10:01:55.303Z,936.46
2019-05-26T10:02:55.732Z,936.49
2019-05-26T10:03:55.309Z,936.48
2019-05-26T10:04:55.267Z,936.53
2019-05-26T10:05:55.231Z,936.50
2019-05-26T10:06:55.243Z,936.54
2019-05-26T10:07:55.208Z,936.55
2019-05-26T10:08:55.578Z,936.56
2019-05-26T10:09:55.185Z,936.56
2019-05-26T10:10:55.163Z,936.59
2019-05-26T10:11:55.159Z,936.62
2019-05-26T10:12:55.217Z,936.62
2019-05-26T10:13:55.154Z,936.57
2019-05-26T10:14:55.520Z,936.59
2019-05-26T10:15:55.119Z,936.63
2019-05-26T10:16:55.113Z,936.63
2019-05-26T10:17:55.092Z,936.62
2019-05-26T10:18:55.089Z,936.64
2019-05-26T10:19:55.075Z,936.63
2019-05-26T10:20:55.570Z,936.63
2019-05-26T10:21:55.049Z,936.64
2019-05-26T10:22:55.039Z,936.66
2019-05-26T10:23:55.038Z,936.72
2019-05-26T10:24:55.071Z,936.73
2019-05-26T10:25:55.000Z,936.75
2019-05-26T10:26:55.437Z,936.74
2019-05-26T10:27:54.967Z,936.71
2019-05-26T10:28:54.950Z,936.69
2019-05-26T10:29:54.960Z,936.75
2019-05-26T10:30:54.910Z,936.74
2019-05-26T10:31:54.931Z,936.73
2019-05-26T10:32:55.301Z,936.75
2019-05-26T10:33:54.911Z,936.74
2019-05-26T10:34:54.908Z,936.73
2019-05-26T10:35:54.885Z,936.74
2019-05-26T10:36:54.870Z,936.77
2019-05-26T10:37:55.188Z,936.77
2019-05-26T10:38:54.831Z,936.76
2019-05-26T10:39:54.835Z,936.76
2019-05-26T10:40:54.821Z,936.76
2019-05-26T10:41:54.817Z,936.77
2019-05-26T10:42:55.155Z,936.76
2019-05-26T10:43:54.773Z,936.77
2019-05-26T10:44:54.773Z,936.75
2019-05-26T10:45:54.739Z,936.77
2019-05-26T10:46:54.749Z,936.77
2019-05-26T10:47:55.170Z,936.77
2019-05-26T10:48:54.735Z,936.79
2019-05-26T10:49:54.715Z,936.82
2019-05-26T10:50:54.698Z,936.81
2019-05-26T10:51:54.690Z,936.84
2019-05-26T10:52:55.064Z,936.83
2019-05-26T10:53:54.656Z,936.86
2019-05-26T10:54:54.652Z,936.88
2019-05-26T10:55:54.628Z,936.85
2019-05-26T10:56:54.617Z,936.91
2019-05-26T10:57:54.951Z,936.88
2019-05-26T10:58:54.623Z,936.93
2019-05-26T10:59:54.587Z,936.91
2019-05-26T11:00:54.566Z,936.90
2019-05-26T11:01:54.567Z,936.89
2019-05-26T11:02:54.901Z,936.87
2019-05-26T11:03:54.543Z,936.88
2019-05-26T11:04:54.543Z,936.89
2019-05-26T11:05:54.520Z,936.86
2019-05-26T11:06:54.510Z,936.86
2019-05-26T11:07:54.510Z,936.86
2019-05-26T11:08:54.941Z,936.84
2019-05-26T11:09:54.474Z,936.84
2019-05-26T11:10:54.464Z,936.85
2019-05-26T11:11:54.447Z,936.92
2019-05-26T11:12:54.407Z,936.88
2019-05-26T11:14:02.510Z,936.91
2019-05-26T11:14:54.851Z,936.94
2019-05-26T11:15:54.407Z,936.99
2019-05-26T11:16:54.403Z,937.01
2019-05-26T11:17:54.429Z,937.01
2019-05-26T11:18:54.362Z,937.04
2019-05-26T11:19:54.404Z,937.00
2019-05-26T11:20:54.682Z,937.03
2019-05-26T11:21:54.316Z,937.10
2019-05-26T11:22:54.319Z,937.08
2019-05-26T11:23:54.293Z,937.14
2019-05-26T11:24:54.276Z,937.14
2019-05-26T11:25:54.326Z,937.18
2019-05-26T11:26:54.659Z,937.19
2019-05-26T11:27:54.276Z,937.18
2019-05-26T11:28:54.262Z,937.22
2019-05-26T11:29:54.242Z,937.26
2019-05-26T11:30:54.228Z,937.23
2019-05-26T11:31:54.241Z,937.26
2019-05-26T11:32:54.712Z,937.30
2019-05-26T11:33:54.219Z,937.32
2019-05-26T11:35:01.570Z,937.29
2019-05-26T11:35:54.172Z,937.36
2019-05-26T11:36:54.173Z,937.38
2019-05-26T11:37:54.147Z,937.40
2019-05-26T11:38:54.589Z,937.43
2019-05-26T11:39:54.126Z,937.44
2019-05-26T11:40:54.112Z,937.43
2019-05-26T11:41:55.157Z,937.45
2019-05-26T11:42:54.099Z,937.46
2019-05-26T11:43:54.067Z,937.45
2019-05-26T11:44:54.513Z,937.45
2019-05-26T11:45:54.073Z,937.41
2019-05-26T11:46:54.055Z,937.42
2019-05-26T11:47:54.049Z,937.41
2019-05-26T11:48:54.032Z,937.38
2019-05-26T11:49:54.024Z,937.39
2019-05-26T11:50:54.373Z,937.38
2019-05-26T11:51:53.994Z,937.34
2019-05-26T11:52:53.983Z,937.38
2019-05-26T11:53:53.978Z,937.36
2019-05-26T11:54:53.964Z,937.38
2019-05-26T11:55:54.316Z,937.37
2019-05-26T11:56:53.930Z,937.36
2019-05-26T11:57:53.947Z,937.35
2019-05-26T11:58:53.925Z,937.36
2019-05-26T11:59:53.906Z,937.38
2019-05-26T12:00:54.289Z,937.38
2019-05-26T12:01:53.885Z,937.41
2019-05-26T12:02:53.877Z,937.38
2019-05-26T12:03:53.871Z,937.38
2019-05-26T12:04:53.868Z,937.44
2019-05-26T12:05:54.196Z,937.45
2019-05-26T12:06:53.810Z,937.44
2019-05-26T12:07:53.819Z,937.44
2019-05-26T12:08:53.815Z,937.45
2019-05-26T12:09:53.801Z,937.47
2019-05-26T12:10:54.159Z,937.49
2019-05-26T12:11:53.782Z,937.49
2019-05-26T12:12:53.757Z,937.53
2019-05-26T12:13:53.771Z,937.54
2019-05-26T12:14:53.853Z,937.52
2019-05-26T12:15:53.748Z,937.54
2019-05-26T12:16:54.035Z,937.52
2019-05-26T12:17:53.727Z,937.54
2019-05-26T12:18:53.691Z,937.52
2019-05-26T12:19:53.695Z,937.55
2019-05-26T12:20:53.702Z,937.58
2019-05-26T12:21:53.685Z,937.58
2019-05-26T12:22:54.173Z,937.59
2019-05-26T12:23:55.095Z,937.60
2019-05-26T12:24:53.656Z,937.61
2019-05-26T12:25:53.637Z,937.64
2019-05-26T12:26:53.632Z,937.60
2019-05-26T12:27:53.623Z,937.56